sensor_id;sensor_type;location;lat;lon;timestamp;P1;durP1;ratioP1;P2;durP2;ratioP2
65009;SDS011;51556;50.002;22.014;2022-11-13T00:00:20;97.90;;;49.70;;
65009;SDS011;51556;50.002;22.014;2022-11-13T00:02:46;102.00;;;51.30;;
65009;SDS011;51556;50.002;22.014;2022-11-13T00:05:11;95.70;;;49.50;;
65009;SDS011;51556;50.002;22.014;2022-11-13T00:07:37;101.80;;;50.50;;
65009;SDS011;51556;50.002;22.014;2022-11-13T00:10:02;94.10;;;48.30;;
65009;SDS011;51556;50.002;22.014;2022-11-13T00:12:28;88.70;;;48.60;;
65009;SDS011;51556;50.002;22.014;2022-11-13T00:14:53;90.00;;;46.80;;
65009;SDS011;51556;50.002;22.014;2022-11-13T00:17:18;101.10;;;48.60;;
65009;SDS011;51556;50.002;22.014;2022-11-13T00:19:44;90.70;;;45.70;;
65009;SDS011;51556;50.002;22.014;2022-11-13T00:22:09;86.80;;;47.10;;
65009;SDS011;51556;50.002;22.014;2022-11-13T00:24:35;87.60;;;43.40;;
65009;SDS011;51556;50.002;22.014;2022-11-13T00:27:00;85.10;;;45.10;;
65009;SDS011;51556;50.002;22.014;2022-11-13T00:29:25;88.30;;;43.40;;
65009;SDS011;51556;50.002;22.014;2022-11-13T00:31:51;81.30;;;43.50;;
65009;SDS011;51556;50.002;22.014;2022-11-13T00:34:16;85.20;;;41.60;;
65009;SDS011;51556;50.002;22.014;2022-11-13T00:36:41;85.40;;;44.10;;
65009;SDS011;51556;50.002;22.014;2022-11-13T00:39:07;82.20;;;43.50;;
65009;SDS011;51556;50.002;22.014;2022-11-13T00:41:33;79.20;;;43.50;;
65009;SDS011;51556;50.002;22.014;2022-11-13T00:43:59;79.30;;;42.90;;
65009;SDS011;51556;50.002;22.014;2022-11-13T00:46:24;86.20;;;42.20;;
65009;SDS011;51556;50.002;22.014;2022-11-13T00:48:49;78.60;;;43.90;;
65009;SDS011;51556;50.002;22.014;2022-11-13T00:51:15;85.20;;;45.20;;
65009;SDS011;51556;50.002;22.014;2022-11-13T00:53:40;83.20;;;43.30;;
65009;SDS011;51556;50.002;22.014;2022-11-13T00:56:05;75.30;;;41.70;;
65009;SDS011;51556;50.002;22.014;2022-11-13T00:58:31;74.20;;;38.30;;
65009;SDS011;51556;50.002;22.014;2022-11-13T01:01:02;72.80;;;35.80;;
65009;SDS011;51556;50.002;22.014;2022-11-13T01:03:29;64.80;;;35.60;;
65009;SDS011;51556;50.002;22.014;2022-11-13T01:05:54;63.30;;;33.30;;
65009;SDS011;51556;50.002;22.014;2022-11-13T01:08:20;69.70;;;37.80;;
65009;SDS011;51556;50.002;22.014;2022-11-13T01:10:46;70.60;;;37.10;;
65009;SDS011;51556;50.002;22.014;2022-11-13T01:13:13;67.90;;;36.70;;
65009;SDS011;51556;50.002;22.014;2022-11-13T01:15:42;64.20;;;33.30;;
65009;SDS011;51556;50.002;22.014;2022-11-13T01:18:10;56.80;;;30.90;;
65009;SDS011;51556;50.002;22.014;2022-11-13T01:20:36;50.60;;;27.60;;
65009;SDS011;51556;50.002;22.014;2022-11-13T01:23:02;60.00;;;28.90;;
65009;SDS011;51556;50.002;22.014;2022-11-13T01:25:27;52.10;;;26.60;;
65009;SDS011;51556;50.002;22.014;2022-11-13T01:27:53;49.60;;;25.60;;
65009;SDS011;51556;50.002;22.014;2022-11-13T01:30:19;45.50;;;23.10;;
65009;SDS011;51556;50.002;22.014;2022-11-13T01:32:44;48.70;;;25.40;;
65009;SDS011;51556;50.002;22.014;2022-11-13T01:35:10;42.50;;;21.90;;
65009;SDS011;51556;50.002;22.014;2022-11-13T01:37:35;52.10;;;23.90;;
65009;SDS011;51556;50.002;22.014;2022-11-13T01:40:00;49.90;;;23.70;;
65009;SDS011;51556;50.002;22.014;2022-11-13T01:42:26;46.10;;;22.80;;
65009;SDS011;51556;50.002;22.014;2022-11-13T01:44:55;44.70;;;22.50;;
65009;SDS011;51556;50.002;22.014;2022-11-13T01:47:23;42.10;;;22.20;;
65009;SDS011;51556;50.002;22.014;2022-11-13T01:49:53;44.50;;;22.10;;
65009;SDS011;51556;50.002;22.014;2022-11-13T01:54:52;55.00;;;28.40;;
65009;SDS011;51556;50.002;22.014;2022-11-13T01:57:21;54.70;;;29.20;;
65009;SDS011;51556;50.002;22.014;2022-11-13T01:59:48;60.40;;;29.70;;
65009;SDS011;51556;50.002;22.014;2022-11-13T02:02:17;59.10;;;30.30;;
65009;SDS011;51556;50.002;22.014;2022-11-13T02:04:43;58.80;;;32.00;;
65009;SDS011;51556;50.002;22.014;2022-11-13T02:07:10;63.30;;;32.00;;
65009;SDS011;51556;50.002;22.014;2022-11-13T02:09:41;67.80;;;33.60;;
65009;SDS011;51556;50.002;22.014;2022-11-13T02:12:11;59.40;;;32.20;;
65009;SDS011;51556;50.002;22.014;2022-11-13T02:14:40;62.70;;;32.60;;
65009;SDS011;51556;50.002;22.014;2022-11-13T02:17:09;65.20;;;33.40;;
65009;SDS011;51556;50.002;22.014;2022-11-13T02:19:39;66.40;;;31.80;;
65009;SDS011;51556;50.002;22.014;2022-11-13T02:22:11;66.20;;;33.20;;
65009;SDS011;51556;50.002;22.014;2022-11-13T02:24:52;69.80;;;33.10;;
65009;SDS011;51556;50.002;22.014;2022-11-13T02:27:26;58.40;;;31.50;;
65009;SDS011;51556;50.002;22.014;2022-11-13T02:29:56;62.60;;;31.20;;
65009;SDS011;51556;50.002;22.014;2022-11-13T02:32:22;64.40;;;31.00;;
65009;SDS011;51556;50.002;22.014;2022-11-13T02:34:47;57.80;;;30.20;;
65009;SDS011;51556;50.002;22.014;2022-11-13T02:37:12;61.30;;;30.50;;
65009;SDS011;51556;50.002;22.014;2022-11-13T02:39:38;54.30;;;30.00;;
65009;SDS011;51556;50.002;22.014;2022-11-13T02:42:03;55.20;;;29.20;;
65009;SDS011;51556;50.002;22.014;2022-11-13T02:44:29;63.20;;;29.50;;
65009;SDS011;51556;50.002;22.014;2022-11-13T02:46:54;57.40;;;29.00;;
65009;SDS011;51556;50.002;22.014;2022-11-13T02:49:20;55.50;;;29.30;;
65009;SDS011;51556;50.002;22.014;2022-11-13T02:51:45;53.40;;;28.40;;
65009;SDS011;51556;50.002;22.014;2022-11-13T02:54:10;55.70;;;28.50;;
65009;SDS011;51556;50.002;22.014;2022-11-13T02:56:36;56.60;;;29.50;;
65009;SDS011;51556;50.002;22.014;2022-11-13T02:59:01;53.20;;;27.70;;
65009;SDS011;51556;50.002;22.014;2022-11-13T03:01:26;53.30;;;28.40;;
65009;SDS011;51556;50.002;22.014;2022-11-13T03:03:52;55.60;;;27.70;;
65009;SDS011;51556;50.002;22.014;2022-11-13T03:06:17;57.60;;;28.80;;
65009;SDS011;51556;50.002;22.014;2022-11-13T03:08:42;55.10;;;26.80;;
65009;SDS011;51556;50.002;22.014;2022-11-13T03:11:08;54.10;;;25.50;;
65009;SDS011;51556;50.002;22.014;2022-11-13T03:13:35;52.40;;;26.20;;
65009;SDS011;51556;50.002;22.014;2022-11-13T03:16:08;51.10;;;26.20;;
65009;SDS011;51556;50.002;22.014;2022-11-13T03:18:34;55.00;;;25.00;;
65009;SDS011;51556;50.002;22.014;2022-11-13T03:21:04;50.40;;;25.80;;
65009;SDS011;51556;50.002;22.014;2022-11-13T03:23:31;48.40;;;25.00;;
65009;SDS011;51556;50.002;22.014;2022-11-13T03:26:00;46.40;;;24.00;;
65009;SDS011;51556;50.002;22.014;2022-11-13T03:28:30;52.10;;;27.10;;
65009;SDS011;51556;50.002;22.014;2022-11-13T03:30:55;54.10;;;25.50;;
65009;SDS011;51556;50.002;22.014;2022-11-13T03:33:21;53.60;;;27.20;;
65009;SDS011;51556;50.002;22.014;2022-11-13T03:35:46;53.10;;;26.40;;
65009;SDS011;51556;50.002;22.014;2022-11-13T03:38:12;51.30;;;27.20;;
65009;SDS011;51556;50.002;22.014;2022-11-13T03:40:37;50.60;;;25.20;;
65009;SDS011;51556;50.002;22.014;2022-11-13T03:43:02;48.70;;;26.10;;
65009;SDS011;51556;50.002;22.014;2022-11-13T03:45:28;51.50;;;25.90;;
65009;SDS011;51556;50.002;22.014;2022-11-13T03:47:53;49.00;;;25.40;;
65009;SDS011;51556;50.002;22.014;2022-11-13T03:50:18;50.20;;;25.50;;
65009;SDS011;51556;50.002;22.014;2022-11-13T03:52:44;52.10;;;24.80;;
65009;SDS011;51556;50.002;22.014;2022-11-13T03:55:09;50.40;;;23.60;;
65009;SDS011;51556;50.002;22.014;2022-11-13T03:57:35;48.30;;;24.90;;
65009;SDS011;51556;50.002;22.014;2022-11-13T04:00:00;47.50;;;23.50;;
65009;SDS011;51556;50.002;22.014;2022-11-13T04:02:25;48.10;;;23.00;;
65009;SDS011;51556;50.002;22.014;2022-11-13T04:04:51;46.70;;;23.00;;
65009;SDS011;51556;50.002;22.014;2022-11-13T04:07:16;55.60;;;25.10;;
65009;SDS011;51556;50.002;22.014;2022-11-13T04:09:41;48.40;;;23.60;;
65009;SDS011;51556;50.002;22.014;2022-11-13T04:12:07;50.20;;;24.50;;
65009;SDS011;51556;50.002;22.014;2022-11-13T04:14:32;41.60;;;22.30;;
65009;SDS011;51556;50.002;22.014;2022-11-13T04:16:57;49.50;;;24.10;;
65009;SDS011;51556;50.002;22.014;2022-11-13T04:19:23;46.60;;;24.20;;
65009;SDS011;51556;50.002;22.014;2022-11-13T04:21:48;51.70;;;23.00;;
65009;SDS011;51556;50.002;22.014;2022-11-13T04:24:13;49.20;;;23.70;;
65009;SDS011;51556;50.002;22.014;2022-11-13T04:26:39;45.50;;;21.30;;
65009;SDS011;51556;50.002;22.014;2022-11-13T04:29:04;47.00;;;23.00;;
65009;SDS011;51556;50.002;22.014;2022-11-13T04:31:30;46.70;;;24.20;;
65009;SDS011;51556;50.002;22.014;2022-11-13T04:33:55;51.00;;;23.30;;
65009;SDS011;51556;50.002;22.014;2022-11-13T04:36:20;43.90;;;22.40;;
65009;SDS011;51556;50.002;22.014;2022-11-13T04:38:46;46.80;;;23.00;;
65009;SDS011;51556;50.002;22.014;2022-11-13T04:41:11;48.10;;;23.30;;
65009;SDS011;51556;50.002;22.014;2022-11-13T04:43:56;45.30;;;22.20;;
65009;SDS011;51556;50.002;22.014;2022-11-13T04:46:21;44.10;;;22.90;;
65009;SDS011;51556;50.002;22.014;2022-11-13T04:48:47;48.10;;;23.30;;
65009;SDS011;51556;50.002;22.014;2022-11-13T04:51:12;51.60;;;24.50;;
65009;SDS011;51556;50.002;22.014;2022-11-13T04:53:38;51.20;;;23.90;;
65009;SDS011;51556;50.002;22.014;2022-11-13T04:56:03;51.00;;;24.30;;
65009;SDS011;51556;50.002;22.014;2022-11-13T04:58:28;46.50;;;22.90;;
65009;SDS011;51556;50.002;22.014;2022-11-13T05:00:54;47.70;;;22.60;;
65009;SDS011;51556;50.002;22.014;2022-11-13T05:03:19;46.90;;;22.00;;
65009;SDS011;51556;50.002;22.014;2022-11-13T05:05:44;46.40;;;22.00;;
65009;SDS011;51556;50.002;22.014;2022-11-13T05:08:10;47.70;;;23.00;;
65009;SDS011;51556;50.002;22.014;2022-11-13T05:10:36;50.30;;;22.90;;
65009;SDS011;51556;50.002;22.014;2022-11-13T05:13:02;48.20;;;23.00;;
65009;SDS011;51556;50.002;22.014;2022-11-13T05:15:27;44.30;;;21.40;;
65009;SDS011;51556;50.002;22.014;2022-11-13T05:17:53;46.60;;;22.00;;
65009;SDS011;51556;50.002;22.014;2022-11-13T05:20:18;49.10;;;22.50;;
65009;SDS011;51556;50.002;22.014;2022-11-13T05:22:44;46.60;;;22.90;;
65009;SDS011;51556;50.002;22.014;2022-11-13T05:25:09;47.80;;;23.00;;
65009;SDS011;51556;50.002;22.014;2022-11-13T05:27:35;46.80;;;23.10;;
65009;SDS011;51556;50.002;22.014;2022-11-13T05:30:00;48.10;;;23.30;;
65009;SDS011;51556;50.002;22.014;2022-11-13T05:32:26;47.90;;;21.60;;
65009;SDS011;51556;50.002;22.014;2022-11-13T05:34:51;46.90;;;23.30;;
65009;SDS011;51556;50.002;22.014;2022-11-13T05:37:16;51.50;;;23.20;;
65009;SDS011;51556;50.002;22.014;2022-11-13T05:39:42;47.20;;;22.30;;
65009;SDS011;51556;50.002;22.014;2022-11-13T05:42:07;47.80;;;23.50;;
65009;SDS011;51556;50.002;22.014;2022-11-13T05:44:32;51.30;;;24.50;;
65009;SDS011;51556;50.002;22.014;2022-11-13T05:46:58;54.40;;;25.80;;
65009;SDS011;51556;50.002;22.014;2022-11-13T05:49:23;53.30;;;26.40;;
65009;SDS011;51556;50.002;22.014;2022-11-13T05:51:49;57.00;;;26.10;;
65009;SDS011;51556;50.002;22.014;2022-11-13T05:54:14;57.70;;;25.80;;
65009;SDS011;51556;50.002;22.014;2022-11-13T05:56:39;47.10;;;22.30;;
65009;SDS011;51556;50.002;22.014;2022-11-13T05:59:05;49.10;;;23.80;;
65009;SDS011;51556;50.002;22.014;2022-11-13T06:01:38;48.30;;;22.40;;
65009;SDS011;51556;50.002;22.014;2022-11-13T06:04:05;44.00;;;21.70;;
65009;SDS011;51556;50.002;22.014;2022-11-13T06:06:32;47.60;;;22.30;;
65009;SDS011;51556;50.002;22.014;2022-11-13T06:08:59;47.80;;;22.20;;
65009;SDS011;51556;50.002;22.014;2022-11-13T06:11:26;43.20;;;21.80;;
65009;SDS011;51556;50.002;22.014;2022-11-13T06:13:54;50.90;;;23.50;;
65009;SDS011;51556;50.002;22.014;2022-11-13T06:16:21;50.40;;;22.40;;
65009;SDS011;51556;50.002;22.014;2022-11-13T06:18:48;48.00;;;21.40;;
65009;SDS011;51556;50.002;22.014;2022-11-13T06:21:18;42.80;;;19.50;;
65009;SDS011;51556;50.002;22.014;2022-11-13T06:23:45;52.90;;;23.70;;
65009;SDS011;51556;50.002;22.014;2022-11-13T06:26:16;50.50;;;23.10;;
65009;SDS011;51556;50.002;22.014;2022-11-13T06:28:43;45.90;;;21.20;;
65009;SDS011;51556;50.002;22.014;2022-11-13T06:31:13;50.40;;;23.10;;
65009;SDS011;51556;50.002;22.014;2022-11-13T06:33:41;46.10;;;21.40;;
65009;SDS011;51556;50.002;22.014;2022-11-13T06:36:13;46.60;;;20.70;;
65009;SDS011;51556;50.002;22.014;2022-11-13T06:38:47;44.40;;;21.50;;
65009;SDS011;51556;50.002;22.014;2022-11-13T06:41:13;41.40;;;19.40;;
65009;SDS011;51556;50.002;22.014;2022-11-13T06:43:40;44.30;;;20.00;;
65009;SDS011;51556;50.002;22.014;2022-11-13T06:46:10;47.10;;;22.30;;
65009;SDS011;51556;50.002;22.014;2022-11-13T06:48:40;47.10;;;22.40;;
65009;SDS011;51556;50.002;22.014;2022-11-13T06:51:06;44.70;;;22.00;;
65009;SDS011;51556;50.002;22.014;2022-11-13T06:53:34;42.70;;;20.40;;
65009;SDS011;51556;50.002;22.014;2022-11-13T06:55:59;44.60;;;20.90;;
65009;SDS011;51556;50.002;22.014;2022-11-13T06:58:25;46.70;;;22.40;;
65009;SDS011;51556;50.002;22.014;2022-11-13T07:00:51;49.40;;;24.20;;
65009;SDS011;51556;50.002;22.014;2022-11-13T07:03:21;44.60;;;22.20;;
65009;SDS011;51556;50.002;22.014;2022-11-13T07:05:49;49.00;;;24.10;;
65009;SDS011;51556;50.002;22.014;2022-11-13T07:08:16;54.30;;;24.00;;
65009;SDS011;51556;50.002;22.014;2022-11-13T07:10:42;51.30;;;23.80;;
65009;SDS011;51556;50.002;22.014;2022-11-13T07:13:08;43.80;;;23.10;;
65009;SDS011;51556;50.002;22.014;2022-11-13T07:15:37;39.90;;;19.00;;
65009;SDS011;51556;50.002;22.014;2022-11-13T07:18:04;44.80;;;21.40;;
65009;SDS011;51556;50.002;22.014;2022-11-13T07:20:31;46.50;;;20.70;;
65009;SDS011;51556;50.002;22.014;2022-11-13T07:22:57;53.40;;;24.00;;
65009;SDS011;51556;50.002;22.014;2022-11-13T07:25:24;47.70;;;23.30;;
65009;SDS011;51556;50.002;22.014;2022-11-13T07:27:51;50.60;;;23.00;;
65009;SDS011;51556;50.002;22.014;2022-11-13T07:30:17;52.30;;;24.70;;
65009;SDS011;51556;50.002;22.014;2022-11-13T07:32:43;45.00;;;21.60;;
65009;SDS011;51556;50.002;22.014;2022-11-13T07:35:08;46.10;;;20.80;;
65009;SDS011;51556;50.002;22.014;2022-11-13T07:37:34;53.00;;;23.50;;
65009;SDS011;51556;50.002;22.014;2022-11-13T07:39:59;48.30;;;21.80;;
65009;SDS011;51556;50.002;22.014;2022-11-13T07:42:25;46.90;;;22.20;;
65009;SDS011;51556;50.002;22.014;2022-11-13T07:44:50;52.00;;;22.70;;
65009;SDS011;51556;50.002;22.014;2022-11-13T07:47:16;54.50;;;24.50;;
65009;SDS011;51556;50.002;22.014;2022-11-13T07:49:41;55.80;;;24.80;;
65009;SDS011;51556;50.002;22.014;2022-11-13T07:52:07;54.70;;;24.10;;
65009;SDS011;51556;50.002;22.014;2022-11-13T07:54:32;51.60;;;23.00;;
65009;SDS011;51556;50.002;22.014;2022-11-13T07:56:57;55.30;;;24.50;;
65009;SDS011;51556;50.002;22.014;2022-11-13T07:59:23;53.10;;;23.40;;
65009;SDS011;51556;50.002;22.014;2022-11-13T08:01:49;47.40;;;23.20;;
65009;SDS011;51556;50.002;22.014;2022-11-13T08:04:14;53.80;;;23.90;;
65009;SDS011;51556;50.002;22.014;2022-11-13T08:06:39;44.80;;;21.10;;
65009;SDS011;51556;50.002;22.014;2022-11-13T08:09:05;52.40;;;22.80;;
65009;SDS011;51556;50.002;22.014;2022-11-13T08:11:30;46.40;;;21.70;;
65009;SDS011;51556;50.002;22.014;2022-11-13T08:13:55;56.90;;;23.10;;
65009;SDS011;51556;50.002;22.014;2022-11-13T08:16:21;48.60;;;22.40;;
65009;SDS011;51556;50.002;22.014;2022-11-13T08:18:47;54.30;;;24.90;;
65009;SDS011;51556;50.002;22.014;2022-11-13T08:21:13;52.10;;;24.20;;
65009;SDS011;51556;50.002;22.014;2022-11-13T08:23:39;52.30;;;24.00;;
65009;SDS011;51556;50.002;22.014;2022-11-13T08:26:05;47.20;;;22.70;;
65009;SDS011;51556;50.002;22.014;2022-11-13T08:28:31;49.30;;;22.60;;
65009;SDS011;51556;50.002;22.014;2022-11-13T08:30:56;50.50;;;23.00;;
65009;SDS011;51556;50.002;22.014;2022-11-13T08:33:22;56.50;;;23.80;;
65009;SDS011;51556;50.002;22.014;2022-11-13T08:35:51;51.80;;;24.00;;
65009;SDS011;51556;50.002;22.014;2022-11-13T08:38:17;52.00;;;24.60;;
65009;SDS011;51556;50.002;22.014;2022-11-13T08:40:42;56.50;;;24.20;;
65009;SDS011;51556;50.002;22.014;2022-11-13T08:43:08;57.70;;;23.50;;
65009;SDS011;51556;50.002;22.014;2022-11-13T08:45:33;49.80;;;21.60;;
65009;SDS011;51556;50.002;22.014;2022-11-13T08:47:59;52.60;;;23.20;;
65009;SDS011;51556;50.002;22.014;2022-11-13T08:50:26;50.40;;;23.40;;
65009;SDS011;51556;50.002;22.014;2022-11-13T08:52:56;53.70;;;24.40;;
65009;SDS011;51556;50.002;22.014;2022-11-13T08:55:23;48.90;;;23.40;;
65009;SDS011;51556;50.002;22.014;2022-11-13T08:57:49;51.00;;;23.90;;
65009;SDS011;51556;50.002;22.014;2022-11-13T09:00:15;57.60;;;24.80;;
65009;SDS011;51556;50.002;22.014;2022-11-13T09:02:41;55.40;;;25.10;;
65009;SDS011;51556;50.002;22.014;2022-11-13T09:05:07;59.10;;;25.30;;
65009;SDS011;51556;50.002;22.014;2022-11-13T09:07:32;55.70;;;26.90;;
65009;SDS011;51556;50.002;22.014;2022-11-13T09:09:58;56.10;;;26.50;;
65009;SDS011;51556;50.002;22.014;2022-11-13T09:12:23;59.20;;;26.00;;
65009;SDS011;51556;50.002;22.014;2022-11-13T09:14:49;60.40;;;26.70;;
65009;SDS011;51556;50.002;22.014;2022-11-13T09:17:14;51.30;;;25.00;;
65009;SDS011;51556;50.002;22.014;2022-11-13T09:19:40;53.60;;;24.50;;
65009;SDS011;51556;50.002;22.014;2022-11-13T09:22:05;52.20;;;24.60;;
65009;SDS011;51556;50.002;22.014;2022-11-13T09:24:31;46.50;;;21.90;;
65009;SDS011;51556;50.002;22.014;2022-11-13T09:26:56;52.60;;;24.00;;
65009;SDS011;51556;50.002;22.014;2022-11-13T09:29:22;65.40;;;28.10;;
65009;SDS011;51556;50.002;22.014;2022-11-13T09:31:48;54.20;;;26.80;;
65009;SDS011;51556;50.002;22.014;2022-11-13T09:34:14;58.70;;;26.20;;
65009;SDS011;51556;50.002;22.014;2022-11-13T09:36:40;61.40;;;24.80;;
65009;SDS011;51556;50.002;22.014;2022-11-13T09:39:05;47.40;;;23.00;;
65009;SDS011;51556;50.002;22.014;2022-11-13T09:41:54;45.00;;;21.00;;
65009;SDS011;51556;50.002;22.014;2022-11-13T09:44:31;39.20;;;19.10;;
65009;SDS011;51556;50.002;22.014;2022-11-13T09:47:08;42.70;;;19.60;;
65009;SDS011;51556;50.002;22.014;2022-11-13T09:49:44;36.00;;;16.90;;
65009;SDS011;51556;50.002;22.014;2022-11-13T09:52:14;39.20;;;18.80;;
65009;SDS011;51556;50.002;22.014;2022-11-13T09:54:48;43.80;;;19.30;;
65009;SDS011;51556;50.002;22.014;2022-11-13T09:57:34;41.10;;;18.70;;
65009;SDS011;51556;50.002;22.014;2022-11-13T10:00:20;40.60;;;19.80;;
65009;SDS011;51556;50.002;22.014;2022-11-13T10:08:21;54.80;;;24.00;;
65009;SDS011;51556;50.002;22.014;2022-11-13T10:11:01;45.30;;;22.30;;
65009;SDS011;51556;50.002;22.014;2022-11-13T10:13:49;49.20;;;22.60;;
65009;SDS011;51556;50.002;22.014;2022-11-13T10:16:52;53.60;;;23.00;;
65009;SDS011;51556;50.002;22.014;2022-11-13T10:19:20;47.70;;;21.90;;
65009;SDS011;51556;50.002;22.014;2022-11-13T10:21:48;48.90;;;23.60;;
65009;SDS011;51556;50.002;22.014;2022-11-13T10:24:23;50.10;;;23.10;;
65009;SDS011;51556;50.002;22.014;2022-11-13T10:26:52;49.10;;;22.60;;
65009;SDS011;51556;50.002;22.014;2022-11-13T10:29:20;52.70;;;24.00;;
65009;SDS011;51556;50.002;22.014;2022-11-13T10:31:47;47.60;;;21.80;;
65009;SDS011;51556;50.002;22.014;2022-11-13T10:34:14;42.50;;;21.50;;
65009;SDS011;51556;50.002;22.014;2022-11-13T10:36:54;45.90;;;22.40;;
65009;SDS011;51556;50.002;22.014;2022-11-13T10:39:24;52.30;;;23.80;;
65009;SDS011;51556;50.002;22.014;2022-11-13T10:41:50;47.40;;;24.50;;
65009;SDS011;51556;50.002;22.014;2022-11-13T10:44:24;48.80;;;23.10;;
65009;SDS011;51556;50.002;22.014;2022-11-13T10:47:02;50.40;;;24.00;;
65009;SDS011;51556;50.002;22.014;2022-11-13T10:49:39;52.40;;;24.30;;
65009;SDS011;51556;50.002;22.014;2022-11-13T10:52:11;51.60;;;25.40;;
65009;SDS011;51556;50.002;22.014;2022-11-13T10:54:42;49.90;;;24.40;;
65009;SDS011;51556;50.002;22.014;2022-11-13T10:57:20;47.80;;;22.80;;
65009;SDS011;51556;50.002;22.014;2022-11-13T11:00:00;49.90;;;24.20;;
65009;SDS011;51556;50.002;22.014;2022-11-13T11:02:26;49.00;;;23.80;;
65009;SDS011;51556;50.002;22.014;2022-11-13T11:07:41;70.60;;;31.20;;
65009;SDS011;51556;50.002;22.014;2022-11-13T11:12:53;39.10;;;19.50;;
65009;SDS011;51556;50.002;22.014;2022-11-13T11:15:24;43.60;;;21.60;;
65009;SDS011;51556;50.002;22.014;2022-11-13T11:18:01;46.00;;;23.00;;
65009;SDS011;51556;50.002;22.014;2022-11-13T11:23:14;53.00;;;24.80;;
65009;SDS011;51556;50.002;22.014;2022-11-13T11:28:35;42.10;;;21.50;;
65009;SDS011;51556;50.002;22.014;2022-11-13T11:31:29;45.60;;;24.00;;
65009;SDS011;51556;50.002;22.014;2022-11-13T11:42:05;56.70;;;26.60;;
65009;SDS011;51556;50.002;22.014;2022-11-13T11:47:13;55.30;;;26.20;;
65009;SDS011;51556;50.002;22.014;2022-11-13T11:49:40;53.60;;;26.40;;
65009;SDS011;51556;50.002;22.014;2022-11-13T11:55:03;48.90;;;23.40;;
65009;SDS011;51556;50.002;22.014;2022-11-13T11:57:53;48.60;;;23.50;;
65009;SDS011;51556;50.002;22.014;2022-11-13T12:00:30;47.20;;;24.10;;
65009;SDS011;51556;50.002;22.014;2022-11-13T12:06:09;41.90;;;21.20;;
65009;SDS011;51556;50.002;22.014;2022-11-13T12:08:51;41.20;;;22.00;;
65009;SDS011;51556;50.002;22.014;2022-11-13T12:12:21;47.70;;;24.40;;
65009;SDS011;51556;50.002;22.014;2022-11-13T12:14:41;40.10;;;19.80;;
65009;SDS011;51556;50.002;22.014;2022-11-13T12:17:20;40.20;;;21.80;;
65009;SDS011;51556;50.002;22.014;2022-11-13T12:22:49;56.90;;;28.90;;
65009;SDS011;51556;50.002;22.014;2022-11-13T12:25:37;40.00;;;22.10;;
65009;SDS011;51556;50.002;22.014;2022-11-13T12:31:30;39.40;;;20.30;;
65009;SDS011;51556;50.002;22.014;2022-11-13T12:36:51;49.00;;;25.20;;
65009;SDS011;51556;50.002;22.014;2022-11-13T12:39:35;55.00;;;26.20;;
65009;SDS011;51556;50.002;22.014;2022-11-13T12:47:39;55.00;;;28.40;;
65009;SDS011;51556;50.002;22.014;2022-11-13T12:52:57;49.80;;;26.10;;
65009;SDS011;51556;50.002;22.014;2022-11-13T12:55:27;48.10;;;25.00;;
65009;SDS011;51556;50.002;22.014;2022-11-13T13:12:28;42.50;;;22.30;;
65009;SDS011;51556;50.002;22.014;2022-11-13T13:18:00;37.20;;;19.20;;
65009;SDS011;51556;50.002;22.014;2022-11-13T13:23:44;34.20;;;18.40;;
65009;SDS011;51556;50.002;22.014;2022-11-13T13:31:37;37.30;;;20.40;;
65009;SDS011;51556;50.002;22.014;2022-11-13T13:48:36;34.30;;;19.20;;
65009;SDS011;51556;50.002;22.014;2022-11-13T13:51:08;35.50;;;20.60;;
65009;SDS011;51556;50.002;22.014;2022-11-13T13:53:40;34.60;;;19.10;;
65009;SDS011;51556;50.002;22.014;2022-11-13T13:56:08;37.70;;;18.90;;
65009;SDS011;51556;50.002;22.014;2022-11-13T13:58:35;37.50;;;20.20;;
65009;SDS011;51556;50.002;22.014;2022-11-13T14:01:03;33.00;;;19.10;;
65009;SDS011;51556;50.002;22.014;2022-11-13T14:03:30;34.40;;;18.90;;
65009;SDS011;51556;50.002;22.014;2022-11-13T14:06:09;37.80;;;21.80;;
65009;SDS011;51556;50.002;22.014;2022-11-13T14:08:46;38.60;;;21.80;;
65009;SDS011;51556;50.002;22.014;2022-11-13T14:11:16;35.70;;;19.10;;
65009;SDS011;51556;50.002;22.014;2022-11-13T14:16:08;38.80;;;21.00;;
65009;SDS011;51556;50.002;22.014;2022-11-13T14:18:34;37.30;;;21.20;;
65009;SDS011;51556;50.002;22.014;2022-11-13T14:21:00;35.80;;;20.30;;
65009;SDS011;51556;50.002;22.014;2022-11-13T14:23:40;33.10;;;19.00;;
65009;SDS011;51556;50.002;22.014;2022-11-13T14:26:08;32.70;;;19.00;;
65009;SDS011;51556;50.002;22.014;2022-11-13T14:28:47;35.90;;;19.80;;
65009;SDS011;51556;50.002;22.014;2022-11-13T14:31:15;33.30;;;19.40;;
65009;SDS011;51556;50.002;22.014;2022-11-13T14:33:41;36.20;;;20.20;;
65009;SDS011;51556;50.002;22.014;2022-11-13T14:36:10;35.80;;;20.20;;
65009;SDS011;51556;50.002;22.014;2022-11-13T14:38:39;36.00;;;19.50;;
65009;SDS011;51556;50.002;22.014;2022-11-13T14:41:20;34.70;;;19.20;;
65009;SDS011;51556;50.002;22.014;2022-11-13T14:43:49;37.00;;;20.50;;
65009;SDS011;51556;50.002;22.014;2022-11-13T14:46:35;40.30;;;21.50;;
65009;SDS011;51556;50.002;22.014;2022-11-13T14:49:02;38.50;;;21.50;;
65009;SDS011;51556;50.002;22.014;2022-11-13T14:51:29;37.80;;;19.70;;
65009;SDS011;51556;50.002;22.014;2022-11-13T14:53:57;37.00;;;20.90;;
65009;SDS011;51556;50.002;22.014;2022-11-13T14:56:35;35.10;;;19.50;;
65009;SDS011;51556;50.002;22.014;2022-11-13T14:59:09;31.90;;;17.90;;
65009;SDS011;51556;50.002;22.014;2022-11-13T15:01:39;38.50;;;20.80;;
65009;SDS011;51556;50.002;22.014;2022-11-13T15:04:05;34.40;;;20.00;;
65009;SDS011;51556;50.002;22.014;2022-11-13T15:06:38;33.00;;;18.20;;
65009;SDS011;51556;50.002;22.014;2022-11-13T15:09:05;35.80;;;19.90;;
65009;SDS011;51556;50.002;22.014;2022-11-13T15:11:36;35.30;;;19.70;;
65009;SDS011;51556;50.002;22.014;2022-11-13T15:14:11;35.10;;;19.30;;
65009;SDS011;51556;50.002;22.014;2022-11-13T15:16:38;35.90;;;20.40;;
65009;SDS011;51556;50.002;22.014;2022-11-13T15:19:08;39.10;;;20.50;;
65009;SDS011;51556;50.002;22.014;2022-11-13T15:21:40;47.70;;;25.20;;
65009;SDS011;51556;50.002;22.014;2022-11-13T15:24:09;52.10;;;26.70;;
65009;SDS011;51556;50.002;22.014;2022-11-13T15:26:35;54.40;;;29.70;;
65009;SDS011;51556;50.002;22.014;2022-11-13T15:29:01;55.40;;;29.60;;
65009;SDS011;51556;50.002;22.014;2022-11-13T15:31:31;59.60;;;31.00;;
65009;SDS011;51556;50.002;22.014;2022-11-13T15:34:00;60.80;;;31.80;;
65009;SDS011;51556;50.002;22.014;2022-11-13T15:36:25;57.40;;;32.00;;
65009;SDS011;51556;50.002;22.014;2022-11-13T15:38:51;53.90;;;29.10;;
65009;SDS011;51556;50.002;22.014;2022-11-13T15:41:17;57.20;;;30.20;;
65009;SDS011;51556;50.002;22.014;2022-11-13T15:43:47;64.10;;;33.50;;
65009;SDS011;51556;50.002;22.014;2022-11-13T15:46:15;61.90;;;32.80;;
65009;SDS011;51556;50.002;22.014;2022-11-13T15:48:45;76.80;;;38.40;;
65009;SDS011;51556;50.002;22.014;2022-11-13T15:51:16;71.70;;;37.00;;